createdAt,value
2022-10-21T00:00:33.403Z,4.97
2022-10-21T00:03:00.038Z,4.60
2022-10-21T00:05:26.732Z,5.30
2022-10-21T00:07:53.291Z,5.05
2022-10-21T00:10:20.105Z,5.07
2022-10-21T00:12:46.692Z,4.97
2022-10-21T00:15:13.579Z,5.03
2022-10-21T00:17:43.016Z,4.75
2022-10-21T00:20:12.565Z,4.45
2022-10-21T00:22:39.514Z,4.80
2022-10-21T00:25:06.790Z,3.90
2022-10-21T00:27:33.409Z,4.15
2022-10-21T00:30:00.045Z,4.53
2022-10-21T00:32:26.686Z,3.95
2022-10-21T00:34:53.375Z,4.25
2022-10-21T00:37:19.947Z,4.80
2022-10-21T00:39:46.551Z,4.60
2022-10-21T00:42:20.216Z,4.13
2022-10-21T00:45:04.805Z,4.07
2022-10-21T00:47:38.020Z,4.80
2022-10-21T00:50:05.391Z,4.70
2022-10-21T00:52:34.021Z,4.97
2022-10-21T00:55:04.366Z,4.28
2022-10-21T00:57:34.606Z,3.88
2022-10-21T01:00:02.393Z,4.35
2022-10-21T01:02:30.138Z,4.50
2022-10-21T01:05:01.065Z,4.07
2022-10-21T01:07:27.732Z,4.30
2022-10-21T01:09:54.321Z,4.28
2022-10-21T01:12:50.298Z,4.25
2022-10-21T01:15:31.466Z,3.78
2022-10-21T01:18:56.512Z,4.30
2022-10-21T01:21:23.011Z,4.47
2022-10-21T01:24:09.625Z,4.20
2022-10-21T01:26:57.725Z,4.32
2022-10-21T01:29:35.928Z,4.20
2022-10-21T01:32:20.703Z,3.67
2022-10-21T01:35:19.417Z,4.38
2022-10-21T01:37:58.129Z,3.78
2022-10-21T01:40:37.354Z,3.70
2022-10-21T01:43:18.817Z,3.95
2022-10-21T01:45:54.716Z,3.85
2022-10-21T01:48:26.893Z,3.80
2022-10-21T01:50:58.580Z,3.72
2022-10-21T01:53:30.077Z,3.90
2022-10-21T01:56:01.286Z,3.65
2022-10-21T01:58:33.434Z,4.47
2022-10-21T02:01:03.289Z,3.40
2022-10-21T02:03:33.964Z,4.07
2022-10-21T02:06:00.608Z,3.53
2022-10-21T02:08:27.673Z,3.38
2022-10-21T02:11:07.550Z,3.28
2022-10-21T02:13:40.122Z,4.05
2022-10-21T02:16:10.680Z,3.72
2022-10-21T02:18:37.236Z,3.83
2022-10-21T02:21:08.700Z,4.25
2022-10-21T02:26:25.920Z,3.60
2022-10-21T02:28:54.056Z,3.20
2022-10-21T02:31:44.651Z,4.47
2022-10-21T02:34:21.289Z,4.07
2022-10-21T02:36:50.910Z,3.65
2022-10-21T02:39:26.398Z,4.25
2022-10-21T02:41:55.741Z,4.15
2022-10-21T02:44:22.883Z,3.95
2022-10-21T02:46:50.176Z,4.70
2022-10-21T02:49:16.730Z,3.65
2022-10-21T02:51:44.058Z,4.43
2022-10-21T02:54:10.646Z,3.63
2022-10-21T02:56:37.181Z,4.45
2022-10-21T02:59:03.793Z,3.53
2022-10-21T03:01:30.433Z,4.15
2022-10-21T03:03:57.092Z,4.32
2022-10-21T03:06:23.705Z,4.30
2022-10-21T03:08:50.318Z,3.38
2022-10-21T03:11:16.900Z,4.18
2022-10-21T03:13:43.474Z,3.58
2022-10-21T03:16:10.128Z,3.92
2022-10-21T03:18:36.679Z,4.13
2022-10-21T03:21:03.499Z,3.88
2022-10-21T03:23:30.020Z,3.65
2022-10-21T03:25:56.584Z,3.08
2022-10-21T03:28:23.153Z,3.17
2022-10-21T03:30:49.682Z,4.65
2022-10-21T03:33:16.242Z,3.80
2022-10-21T03:35:42.840Z,3.40
2022-10-21T03:38:09.420Z,3.97
2022-10-21T03:40:35.980Z,3.13
2022-10-21T03:43:02.542Z,3.63
2022-10-21T03:45:29.109Z,3.42
2022-10-21T03:47:55.811Z,3.30
2022-10-21T03:50:26.174Z,4.18
2022-10-21T03:52:53.503Z,3.45
2022-10-21T03:55:21.110Z,3.33
2022-10-21T03:57:48.226Z,3.55
2022-10-21T04:00:15.269Z,3.85
2022-10-21T04:02:41.851Z,3.53
2022-10-21T04:05:09.131Z,3.13
2022-10-21T04:07:35.754Z,3.10
2022-10-21T04:10:02.645Z,3.00
2022-10-21T04:12:29.304Z,3.15
2022-10-21T04:14:55.912Z,3.45
2022-10-21T04:17:22.496Z,3.50
2022-10-21T04:19:49.022Z,3.42
2022-10-21T04:22:15.575Z,2.92
2022-10-21T04:24:42.265Z,3.60
2022-10-21T04:27:08.838Z,3.05
2022-10-21T04:29:35.381Z,3.33
2022-10-21T04:32:01.955Z,2.80
2022-10-21T04:34:28.570Z,4.40
2022-10-21T04:36:55.177Z,3.20
2022-10-21T04:39:21.754Z,3.78
2022-10-21T04:41:50.583Z,3.63
2022-10-21T04:44:17.132Z,3.10
2022-10-21T04:46:43.755Z,3.60
2022-10-21T04:49:10.415Z,4.05
2022-10-21T04:51:36.973Z,3.17
2022-10-21T04:54:03.633Z,2.80
2022-10-21T04:56:30.279Z,3.13
2022-10-21T04:58:56.814Z,2.90
2022-10-21T05:01:23.421Z,3.40
2022-10-21T05:03:49.988Z,3.10
2022-10-21T05:06:16.536Z,3.10
2022-10-21T05:08:43.151Z,3.00
2022-10-21T05:11:09.797Z,2.83
2022-10-21T05:13:36.353Z,2.60
2022-10-21T05:16:04.515Z,2.90
2022-10-21T05:18:31.595Z,2.80
2022-10-21T05:20:59.091Z,2.28
2022-10-21T05:23:26.901Z,3.30
2022-10-21T05:25:53.920Z,2.95
2022-10-21T05:28:21.455Z,2.85
2022-10-21T05:30:48.110Z,2.72
2022-10-21T05:33:15.552Z,3.33
2022-10-21T05:35:42.196Z,2.60
2022-10-21T05:38:08.862Z,3.22
2022-10-21T05:40:35.467Z,2.60
2022-10-21T05:43:02.041Z,3.60
2022-10-21T05:45:28.660Z,2.80
2022-10-21T05:47:55.364Z,2.80
2022-10-21T05:50:21.970Z,3.25
2022-10-21T05:52:48.536Z,2.80
2022-10-21T05:55:15.158Z,3.17
2022-10-21T05:57:41.787Z,2.38
2022-10-21T06:00:09.272Z,3.10
2022-10-21T06:02:36.350Z,2.40
2022-10-21T06:05:03.549Z,2.67
2022-10-21T06:07:30.142Z,2.55
2022-10-21T06:09:56.698Z,2.85
2022-10-21T06:12:23.371Z,3.03
2022-10-21T06:14:49.909Z,3.35
2022-10-21T06:17:16.502Z,2.78
2022-10-21T06:19:45.951Z,3.13
2022-10-21T06:22:15.708Z,3.13
2022-10-21T06:24:42.280Z,3.15
2022-10-21T06:27:08.938Z,2.95
2022-10-21T06:29:35.504Z,3.10
2022-10-21T06:32:02.495Z,2.65
2022-10-21T06:34:29.052Z,2.80
2022-10-21T06:36:55.675Z,3.58
2022-10-21T06:39:25.217Z,3.15
2022-10-21T06:41:51.883Z,2.80
2022-10-21T06:44:38.366Z,3.00
2022-10-21T06:47:04.979Z,2.95
2022-10-21T06:49:31.759Z,3.35
2022-10-21T06:51:58.336Z,4.10
2022-10-21T06:54:26.485Z,3.72
2022-10-21T06:56:53.085Z,3.88
2022-10-21T06:59:19.739Z,2.90
2022-10-21T07:01:59.732Z,3.38
2022-10-21T07:04:27.089Z,3.10
2022-10-21T07:06:53.727Z,3.22
2022-10-21T07:09:20.371Z,3.45
2022-10-21T07:11:47.102Z,3.78
2022-10-21T07:14:13.723Z,3.53
2022-10-21T07:16:40.368Z,3.42
2022-10-21T07:19:07.210Z,2.97
2022-10-21T07:21:34.070Z,2.70
2022-10-21T07:24:01.783Z,2.83
2022-10-21T07:26:30.225Z,3.08
2022-10-21T07:28:58.792Z,2.20
2022-10-21T07:31:25.848Z,2.60
2022-10-21T07:33:52.800Z,2.65
2022-10-21T07:36:22.971Z,2.28
2022-10-21T07:38:50.968Z,2.47
2022-10-21T07:41:24.404Z,2.88
2022-10-21T07:43:52.090Z,2.30
2022-10-21T07:46:20.828Z,2.50
2022-10-21T07:48:48.154Z,2.63
2022-10-21T07:51:18.213Z,2.13
2022-10-21T07:53:44.878Z,2.40
2022-10-21T07:56:15.347Z,2.88
2022-10-21T07:58:43.109Z,2.95
2022-10-21T08:01:11.493Z,1.90
2022-10-21T08:03:38.898Z,2.03
2022-10-21T08:06:07.420Z,1.83
2022-10-21T08:08:35.317Z,2.78
2022-10-21T08:11:02.689Z,2.00
2022-10-21T08:13:31.507Z,2.63
2022-10-21T08:15:59.166Z,2.22
2022-10-21T08:18:26.379Z,2.35
2022-10-21T08:20:53.724Z,1.95
2022-10-21T08:23:22.064Z,2.40
2022-10-21T08:25:49.398Z,1.80
2022-10-21T08:28:17.019Z,1.92
2022-10-21T08:30:44.486Z,1.98
2022-10-21T08:33:12.116Z,2.05
2022-10-21T08:35:39.959Z,1.98
2022-10-21T08:40:42.163Z,2.00
2022-10-21T08:43:26.689Z,2.30
2022-10-21T08:46:08.630Z,2.15
2022-10-21T08:48:47.595Z,2.47
2022-10-21T08:51:30.330Z,2.67
2022-10-21T08:54:03.540Z,2.15
2022-10-21T08:56:32.040Z,2.67
2022-10-21T08:58:58.860Z,2.80
2022-10-21T09:01:43.107Z,2.63
2022-10-21T09:04:30.807Z,2.67
2022-10-21T09:07:12.687Z,2.35
2022-10-21T09:09:55.449Z,2.60
2022-10-21T09:12:37.941Z,1.90
2022-10-21T09:15:19.574Z,1.63
2022-10-21T09:18:04.471Z,2.10
2022-10-21T09:20:56.269Z,2.13
2022-10-21T09:24:05.347Z,2.42
2022-10-21T09:26:42.028Z,2.72
2022-10-21T09:29:31.188Z,2.53
2022-10-21T09:32:13.818Z,3.17
2022-10-21T09:34:55.022Z,2.33
2022-10-21T09:37:36.949Z,2.97
2022-10-21T09:40:28.591Z,2.58
2022-10-21T09:42:58.968Z,3.80
2022-10-21T09:45:32.016Z,3.80
2022-10-21T09:48:06.171Z,2.83
2022-10-21T09:50:34.816Z,2.92
2022-10-21T09:53:26.687Z,3.05
2022-10-21T09:56:01.924Z,4.68
2022-10-21T09:58:30.020Z,3.35
2022-10-21T10:00:57.001Z,3.90
2022-10-21T10:03:41.762Z,3.40
2022-10-21T10:06:08.693Z,3.83
2022-10-21T10:08:41.390Z,3.35
2022-10-21T10:11:10.885Z,2.97
2022-10-21T10:13:42.804Z,4.38
2022-10-21T10:16:17.535Z,3.70
2022-10-21T10:18:45.344Z,3.10
2022-10-21T10:21:17.413Z,3.63
2022-10-21T10:23:48.416Z,4.30
2022-10-21T10:26:32.867Z,3.90
2022-10-21T10:29:10.741Z,4.10
2022-10-21T10:31:38.137Z,4.03
2022-10-21T10:34:07.684Z,4.03
2022-10-21T10:36:37.923Z,3.60
2022-10-21T10:39:16.882Z,5.07
2022-10-21T10:41:48.389Z,4.20
2022-10-21T10:44:38.938Z,4.07
2022-10-21T10:47:09.182Z,3.97
2022-10-21T10:49:42.166Z,4.30
2022-10-21T10:52:11.712Z,3.58
2022-10-21T10:54:40.540Z,4.20
2022-10-21T10:57:15.461Z,3.85
2022-10-21T10:59:52.249Z,3.42
2022-10-21T11:02:46.617Z,3.75
2022-10-21T11:05:19.352Z,4.22
2022-10-21T11:07:51.579Z,3.80
2022-10-21T11:10:30.370Z,3.90
2022-10-21T11:12:58.194Z,4.80
2022-10-21T11:15:38.843Z,4.43
2022-10-21T11:18:25.275Z,3.53
2022-10-21T11:21:01.501Z,4.10
2022-10-21T11:23:43.240Z,3.13
2022-10-21T11:26:16.186Z,3.40
2022-10-21T11:28:57.922Z,3.70
2022-10-21T11:31:30.418Z,3.25
2022-10-21T11:34:03.091Z,3.55
2022-10-21T11:36:38.868Z,2.65
2022-10-21T11:39:24.396Z,2.60
2022-10-21T11:42:05.137Z,2.78
2022-10-21T11:44:40.058Z,2.88
2022-10-21T11:47:30.543Z,3.10
2022-10-21T11:53:14.442Z,3.13
2022-10-21T11:55:46.916Z,2.97
2022-10-21T11:58:28.866Z,3.03
2022-10-21T12:01:14.925Z,2.70
2022-10-21T12:03:56.657Z,2.72
2022-10-21T12:06:34.527Z,2.80
2022-10-21T12:09:05.738Z,2.70
2022-10-21T12:14:20.781Z,2.65
2022-10-21T12:16:48.285Z,3.20
2022-10-21T12:19:16.046Z,2.58
2022-10-21T12:21:45.570Z,2.83
2022-10-21T12:24:24.212Z,3.13
2022-10-21T12:26:59.295Z,2.67
2022-10-21T12:29:56.241Z,2.10
2022-10-21T12:32:29.398Z,2.20
2022-10-21T12:34:56.634Z,2.00
2022-10-21T12:37:42.466Z,2.40
2022-10-21T12:40:17.440Z,2.65
2022-10-21T12:43:04.211Z,2.85
2022-10-21T12:45:33.845Z,1.92
2022-10-21T12:48:01.051Z,2.15
2022-10-21T12:50:31.649Z,1.80
2022-10-21T12:53:06.682Z,1.77
2022-10-21T12:55:40.835Z,2.03
2022-10-21T12:58:25.126Z,1.85
2022-10-21T13:00:57.382Z,1.35
2022-10-21T13:03:44.874Z,1.23
2022-10-21T13:06:12.664Z,1.67
2022-10-21T13:08:55.788Z,2.10
2022-10-21T13:11:34.599Z,1.67
2022-10-21T13:14:16.394Z,1.20
2022-10-21T13:16:43.168Z,1.13
2022-10-21T13:19:12.737Z,1.02
2022-10-21T13:21:49.441Z,1.35
2022-10-21T13:24:23.693Z,1.02
2022-10-21T13:27:02.656Z,0.90
2022-10-21T13:29:38.524Z,0.90
2022-10-21T13:32:14.228Z,1.00
2022-10-21T13:34:54.027Z,0.80
2022-10-21T13:37:32.787Z,1.10
2022-10-21T13:40:03.999Z,1.00
2022-10-21T13:42:38.631Z,0.85
2022-10-21T13:45:21.322Z,1.10
2022-10-21T13:47:59.553Z,0.82
2022-10-21T13:50:28.337Z,0.93
2022-10-21T13:52:55.351Z,0.70
2022-10-21T13:55:26.235Z,0.75
2022-10-21T13:57:55.184Z,1.25
2022-10-21T14:00:29.462Z,0.77
2022-10-21T14:03:05.049Z,0.88
2022-10-21T14:05:46.143Z,0.77
2022-10-21T14:08:41.049Z,1.00
2022-10-21T14:11:17.426Z,0.80
2022-10-21T14:13:45.014Z,0.57
2022-10-21T14:16:20.106Z,0.50
2022-10-21T14:18:49.143Z,0.60
2022-10-21T14:21:20.800Z,0.85
2022-10-21T14:23:47.906Z,0.70
2022-10-21T14:26:14.816Z,0.85
2022-10-21T14:28:50.270Z,0.82
2022-10-21T14:31:18.240Z,1.00
2022-10-21T14:33:46.550Z,0.50
2022-10-21T14:36:14.971Z,0.80
2022-10-21T14:39:05.744Z,0.45
2022-10-21T14:41:37.913Z,0.98
2022-10-21T14:44:16.171Z,0.70
2022-10-21T14:46:51.732Z,0.50
2022-10-21T14:49:25.435Z,0.85
2022-10-21T14:52:03.877Z,0.60
2022-10-21T14:54:46.252Z,0.85
2022-10-21T14:57:27.854Z,0.70
2022-10-21T14:59:55.322Z,0.88
2022-10-21T15:02:28.177Z,1.00
2022-10-21T15:05:00.283Z,0.60
2022-10-21T15:07:29.813Z,0.43
2022-10-21T15:10:18.256Z,0.60
2022-10-21T15:12:50.540Z,0.30
2022-10-21T15:15:53.414Z,0.35
2022-10-21T15:18:27.003Z,0.45
2022-10-21T15:21:04.938Z,0.57
2022-10-21T15:23:36.108Z,0.60
2022-10-21T15:26:08.702Z,0.45
2022-10-21T15:28:36.497Z,0.75
2022-10-21T15:31:07.879Z,0.63
2022-10-21T15:36:14.219Z,0.50
2022-10-21T15:38:46.690Z,0.55
2022-10-21T15:41:17.436Z,0.73
2022-10-21T15:43:56.285Z,0.40
2022-10-21T15:46:24.719Z,0.50
2022-10-21T15:48:51.709Z,0.77
2022-10-21T15:51:18.706Z,0.85
2022-10-21T15:53:45.336Z,0.88
2022-10-21T15:56:16.597Z,1.05
2022-10-21T15:58:43.370Z,1.05
2022-10-21T16:01:15.797Z,1.02
2022-10-21T16:03:43.759Z,1.60
2022-10-21T16:06:16.353Z,0.88
2022-10-21T16:08:43.052Z,0.93
2022-10-21T16:11:13.487Z,0.77
2022-10-21T16:13:40.078Z,0.82
2022-10-21T16:16:24.995Z,0.68
2022-10-21T16:18:52.587Z,1.00
2022-10-21T16:21:20.711Z,1.38
2022-10-21T16:23:49.230Z,1.10
2022-10-21T16:28:54.717Z,1.30
2022-10-21T16:31:21.619Z,1.05
2022-10-21T16:33:48.407Z,1.15
2022-10-21T16:36:15.641Z,1.30
2022-10-21T16:38:44.148Z,1.50
2022-10-21T16:41:12.998Z,1.42
2022-10-21T16:43:40.141Z,1.10
2022-10-21T16:46:22.607Z,1.00
2022-10-21T16:48:52.125Z,1.13
2022-10-21T16:51:19.333Z,0.63
2022-10-21T16:53:45.869Z,1.10
2022-10-21T16:56:12.650Z,1.10
2022-10-21T16:58:39.310Z,1.15
2022-10-21T17:01:08.191Z,1.10
2022-10-21T17:03:34.915Z,1.10
2022-10-21T17:06:02.147Z,1.17
2022-10-21T17:08:28.886Z,0.90
2022-10-21T17:10:55.619Z,1.15
2022-10-21T17:13:22.191Z,0.70
2022-10-21T17:15:48.818Z,1.13
2022-10-21T17:18:15.864Z,1.50
2022-10-21T17:20:43.011Z,1.30
2022-10-21T17:23:11.023Z,1.05
2022-10-21T17:25:37.664Z,1.27
2022-10-21T17:28:04.577Z,1.15
2022-10-21T17:30:31.155Z,1.20
2022-10-21T17:32:57.752Z,1.30
2022-10-21T17:35:24.322Z,2.25
2022-10-21T17:37:52.426Z,1.90
2022-10-21T17:40:22.119Z,1.35
2022-10-21T17:42:49.443Z,1.00
2022-10-21T17:45:17.183Z,0.95
2022-10-21T17:47:44.235Z,0.80
2022-10-21T17:50:12.259Z,1.55
2022-10-21T17:52:41.175Z,0.88
2022-10-21T17:55:10.454Z,1.13
2022-10-21T17:57:37.029Z,1.20
2022-10-21T18:00:04.578Z,0.90
2022-10-21T18:02:33.588Z,1.00
2022-10-21T18:05:00.873Z,1.13
2022-10-21T18:07:28.703Z,1.05
2022-10-21T18:09:55.771Z,1.23
2022-10-21T18:12:23.357Z,1.23
2022-10-21T18:14:51.480Z,0.90
2022-10-21T18:17:19.683Z,1.00
2022-10-21T18:19:47.492Z,1.10
2022-10-21T18:22:14.845Z,1.10
2022-10-21T18:24:41.497Z,1.10
2022-10-21T18:27:08.761Z,1.23
2022-10-21T18:29:35.816Z,1.30
2022-10-21T18:32:02.651Z,0.98
2022-10-21T18:34:29.222Z,0.68
2022-10-21T18:36:56.643Z,0.77
2022-10-21T18:39:23.348Z,0.57
2022-10-21T18:41:49.895Z,0.90
2022-10-21T18:44:16.481Z,0.52
2022-10-21T18:46:43.613Z,0.57
2022-10-21T18:49:15.052Z,0.40
2022-10-21T18:54:08.357Z,0.50
2022-10-21T18:56:35.055Z,0.50
2022-10-21T18:59:04.772Z,0.52
2022-10-21T19:01:31.467Z,0.70
2022-10-21T19:03:58.102Z,0.50
2022-10-21T19:06:36.021Z,0.50
2022-10-21T19:09:08.145Z,0.52
2022-10-21T19:11:34.849Z,0.63
2022-10-21T19:14:01.407Z,0.57
2022-10-21T19:16:28.040Z,0.75
2022-10-21T19:18:55.197Z,0.50
2022-10-21T19:21:22.659Z,0.50
2022-10-21T19:23:49.308Z,0.60
2022-10-21T19:26:18.799Z,0.52
2022-10-21T19:28:48.360Z,0.50
2022-10-21T19:31:16.834Z,0.40
2022-10-21T19:33:43.948Z,0.30
2022-10-21T19:36:11.223Z,0.40
2022-10-21T19:38:44.313Z,0.57
2022-10-21T19:41:15.513Z,0.20
2022-10-21T19:43:42.152Z,0.20
2022-10-21T19:46:10.673Z,0.35
2022-10-21T19:48:37.633Z,0.20
2022-10-21T19:51:04.844Z,0.20
2022-10-21T19:53:33.742Z,0.30
2022-10-21T19:56:05.299Z,1.13
2022-10-21T19:58:33.108Z,0.60
2022-10-21T20:01:04.609Z,0.90
2022-10-21T20:03:31.571Z,0.50
2022-10-21T20:05:58.087Z,0.30
2022-10-21T20:13:27.364Z,1.40
2022-10-21T20:15:53.999Z,0.90
2022-10-21T20:18:22.322Z,0.70
2022-10-21T20:20:51.497Z,0.40
2022-10-21T20:23:18.080Z,0.32
2022-10-21T20:25:49.160Z,0.60
2022-10-21T20:28:16.416Z,0.20
2022-10-21T20:30:43.221Z,0.10
2022-10-21T20:33:09.793Z,0.32
2022-10-21T20:35:40.899Z,0.20
2022-10-21T20:38:08.612Z,0.20
2022-10-21T20:40:35.928Z,0.22
2022-10-21T20:43:02.626Z,0.10
2022-10-21T20:45:29.390Z,0.30
2022-10-21T20:47:56.186Z,0.30
2022-10-21T20:50:22.813Z,0.40
2022-10-21T20:52:49.358Z,0.32
2022-10-21T20:55:16.113Z,0.30
2022-10-21T20:57:42.919Z,0.30
2022-10-21T21:00:10.380Z,0.30
2022-10-21T21:02:37.693Z,0.30
2022-10-21T21:05:04.489Z,0.38
2022-10-21T21:07:31.103Z,2.90
2022-10-21T21:10:02.807Z,1.00
2022-10-21T21:12:30.077Z,0.70
2022-10-21T21:14:56.647Z,0.88
2022-10-21T21:17:23.209Z,1.70
2022-10-21T21:19:50.150Z,1.90
2022-10-21T21:22:16.964Z,1.60
2022-10-21T21:24:43.529Z,1.10
2022-10-21T21:27:10.131Z,1.10
2022-10-21T21:29:36.725Z,1.20
2022-10-21T21:32:03.349Z,2.10
2022-10-21T21:34:29.969Z,2.40
2022-10-21T21:36:56.558Z,1.20
2022-10-21T21:39:23.277Z,1.00
2022-10-21T21:41:50.152Z,1.00
2022-10-21T21:44:16.702Z,0.60
2022-10-21T21:46:43.305Z,0.55
2022-10-21T21:49:10.045Z,0.57
2022-10-21T21:51:36.703Z,0.47
2022-10-21T21:54:05.038Z,1.05
2022-10-21T21:56:31.668Z,0.80
2022-10-21T21:58:58.560Z,0.60
2022-10-21T22:01:27.720Z,0.50
2022-10-21T22:03:54.807Z,1.10
2022-10-21T22:06:23.469Z,1.00
2022-10-21T22:08:50.474Z,0.60
2022-10-21T22:11:20.689Z,0.70
2022-10-21T22:13:47.566Z,0.70
2022-10-21T22:16:16.038Z,0.63
2022-10-21T22:18:43.523Z,0.77
2022-10-21T22:21:13.237Z,0.77
2022-10-21T22:23:40.780Z,0.68
2022-10-21T22:26:08.712Z,0.70
2022-10-21T22:28:35.528Z,0.95
2022-10-21T22:31:02.011Z,0.50
2022-10-21T22:33:29.583Z,0.82
2022-10-21T22:35:56.279Z,0.50
2022-10-21T22:38:22.916Z,0.60
2022-10-21T22:41:12.290Z,0.57
2022-10-21T22:43:39.408Z,0.52
2022-10-21T22:46:21.641Z,0.50
2022-10-21T22:48:52.593Z,0.45
2022-10-21T22:51:19.204Z,0.45
2022-10-21T22:53:46.216Z,0.60
2022-10-21T22:56:15.021Z,0.40
2022-10-21T22:58:41.575Z,0.38
2022-10-21T23:01:09.833Z,0.30
2022-10-21T23:03:37.005Z,0.60
2022-10-21T23:06:04.025Z,0.52
2022-10-21T23:08:30.628Z,0.43
2022-10-21T23:10:58.754Z,0.50
2022-10-21T23:13:25.327Z,0.30
2022-10-21T23:15:51.872Z,0.45
2022-10-21T23:18:18.861Z,0.40
2022-10-21T23:20:45.679Z,0.35
2022-10-21T23:23:12.335Z,0.40
2022-10-21T23:25:38.862Z,0.50
2022-10-21T23:28:05.507Z,0.40
2022-10-21T23:30:32.099Z,0.63
2022-10-21T23:32:58.672Z,0.60
2022-10-21T23:35:25.314Z,0.55
2022-10-21T23:37:51.855Z,0.60
2022-10-21T23:40:18.487Z,0.60
2022-10-21T23:42:45.102Z,0.52
2022-10-21T23:45:11.684Z,0.60
2022-10-21T23:47:40.067Z,0.60
2022-10-21T23:50:08.490Z,0.50
2022-10-21T23:52:35.213Z,0.52
2022-10-21T23:55:01.938Z,0.45
2022-10-21T23:57:28.483Z,0.60
2022-10-21T23:59:55.007Z,0.60
